Time;durP1;ratioP1;P1;durP2;ratioP2;P2;SDS_P1;SDS_P2;PMS_P1;PMS_P2;Temp;Humidity;BMP_temperature;BMP_pressure;BME280_temperature;BME280_humidity;BME280_pressure;Samples;Min_cycle;Max_cycle;Signal;HPM_P1;HPM_P2
2022/02/20 00:00:13;;;;;;;81.90;77.53;;;;;;;1.79;100.00;99776.78;5033662;28;20056;-80
2022/02/20 00:02:48;;;;;;;83.22;78.82;;;;;;;1.80;100.00;99778.41;5029819;28;20045;-81
2022/02/20 00:05:21;;;;;;;94.75;89.78;;;;;;;1.83;100.00;99780.59;5018637;28;20050;-80
2022/02/20 00:07:54;;;;;;;97.45;92.35;;;;;;;1.80;100.00;99775.72;5029084;28;20041;-80
2022/02/20 00:10:24;;;;;;;100.88;95.60;;;;;;;1.75;100.00;99767.59;5030032;28;20061;-80
2022/02/20 00:12:59;;;;;;;103.72;98.32;;;;;;;1.76;100.00;99769.22;5027992;28;20050;-80
2022/02/20 00:15:33;;;;;;;113.85;108.00;;;;;;;1.72;100.00;99762.72;5034055;28;20045;-81
2022/02/20 00:18:03;;;;;;;116.13;110.13;;;;;;;1.63;100.00;99761.50;5029738;28;20049;-80
2022/02/20 00:20:31;;;;;;;116.32;110.32;;;;;;;1.78;100.00;99771.66;5039799;28;20054;-80
2022/02/20 00:23:05;;;;;;;116.13;110.13;;;;;;;1.80;100.00;99767.69;5022193;28;20064;-81
2022/02/20 00:25:39;;;;;;;113.10;107.25;;;;;;;1.67;100.00;99758.09;5021539;28;20520;-80
2022/02/20 00:28:14;;;;;;;113.60;107.70;;;;;;;1.70;100.00;99757.59;5021352;28;20038;-80
2022/02/20 00:30:47;;;;;;;115.28;109.30;;;;;;;1.66;100.00;99744.94;5032526;28;20061;-82
2022/02/20 00:33:22;;;;;;;115.80;109.78;;;;;;;1.76;100.00;99755.81;5044797;28;20037;-80
2022/02/20 00:35:55;;;;;;;119.20;113.05;;;;;;;1.66;100.00;99750.28;5032079;28;20045;-80
2022/02/20 00:38:29;;;;;;;124.22;117.78;;;;;;;1.81;100.00;99749.69;5027694;28;20068;-80
2022/02/20 00:41:03;;;;;;;127.47;120.88;;;;;;;1.76;100.00;99750.44;5026272;28;20049;-80
2022/02/20 00:43:31;;;;;;;135.48;128.45;;;;;;;1.75;100.00;99754.19;5029131;28;20046;-80
2022/02/20 00:46:01;;;;;;;138.70;131.50;;;;;;;1.75;100.00;99756.84;5029502;28;20049;-80
2022/02/20 00:48:34;;;;;;;141.82;134.38;;;;;;;1.74;100.00;99755.25;5033721;28;20046;-80
2022/02/20 00:51:04;;;;;;;147.77;139.98;;;;;;;1.71;100.00;99747.69;5029495;28;20042;-81
2022/02/20 00:53:34;;;;;;;162.65;154.02;;;;;;;1.78;100.00;99744.84;5023341;28;20034;-80
2022/02/20 00:56:08;;;;;;;174.75;165.45;;;;;;;1.75;100.00;99739.97;5030552;28;20399;-80
2022/02/20 00:58:43;;;;;;;183.40;173.55;;;;;;;1.83;100.00;99743.03;5017463;28;20054;-81
2022/02/20 01:01:17;;;;;;;195.73;185.27;;;;;;;1.81;100.00;99744.34;5024432;28;20045;-81
2022/02/20 01:03:50;;;;;;;208.55;197.40;;;;;;;1.71;100.00;99745.00;5027602;28;20048;-80
2022/02/20 01:06:20;;;;;;;230.63;218.27;;;;;;;1.86;100.00;99747.94;5026743;28;20052;-80
2022/02/20 01:08:48;;;;;;;255.35;241.70;;;;;;;1.82;100.00;99741.44;5016734;28;20058;-80
2022/02/20 01:11:23;;;;;;;276.55;261.73;;;;;;;1.88;100.00;99750.38;5029970;28;20518;-80
2022/02/20 01:13:56;;;;;;;306.15;289.30;;;;;;;1.93;100.00;99742.38;5028272;28;20512;-81
2022/02/20 01:16:29;;;;;;;334.83;315.85;;;;;;;1.89;100.00;99743.94;5024489;28;20048;-80
2022/02/20 01:19:03;;;;;;;383.23;360.73;;;;;;;1.89;100.00;99738.56;5018459;28;20038;-80
2022/02/20 01:21:31;;;;;;;455.38;426.73;;;;;;;1.84;100.00;99743.88;5031492;28;20059;-80
2022/02/20 01:24:05;;;;;;;563.60;526.40;;;;;;;1.90;100.00;99740.19;5025797;28;20076;-80
2022/02/20 01:26:40;;;;;;;711.72;662.22;;;;;;;1.88;100.00;99736.97;5044877;28;20053;-81
2022/02/20 01:29:13;;;;;;;803.20;745.90;;;;;;;1.89;100.00;99743.94;5023410;28;20135;-80
2022/02/20 01:31:46;;;;;;;969.60;896.08;;;;;;;1.95;100.00;99742.16;5033034;28;20052;-80
2022/02/20 01:34:19;;;;;;;1068.78;984.33;;;;;;;1.92;100.00;99740.78;5043813;28;20056;-81
2022/02/20 01:36:52;;;;;;;1089.90;998.08;;;;;;;1.84;100.00;99747.34;5035173;28;20489;-80
2022/02/20 01:39:26;;;;;;;1174.80;999.90;;;;;;;1.91;100.00;99741.03;5025510;28;20083;-81
2022/02/20 01:42:08;;;;;;;1188.00;999.90;;;;;;;1.81;100.00;99737.13;5035222;28;20064;-80
2022/02/20 01:44:36;;;;;;;1198.45;999.90;;;;;;;1.87;100.00;99729.97;5020843;28;20509;-80
2022/02/20 01:47:07;;;;;;;1204.32;999.90;;;;;;;1.79;100.00;99730.38;5026130;28;20046;-80
2022/02/20 01:49:42;;;;;;;1214.22;999.90;;;;;;;1.81;100.00;99738.97;5026790;28;20048;-81
2022/02/20 01:52:15;;;;;;;1210.63;999.90;;;;;;;1.84;100.00;99739.31;5033347;28;20068;-80
2022/02/20 01:54:48;;;;;;;1217.13;999.90;;;;;;;1.89;100.00;99735.88;5026247;28;20085;-80
2022/02/20 01:57:19;;;;;;;1218.32;999.90;;;;;;;1.93;100.00;99750.44;5029999;28;20049;-81
2022/02/20 01:59:48;;;;;;;1223.93;999.90;;;;;;;1.95;100.00;99744.84;5028660;28;20401;-80
2022/02/20 02:02:41;;;;;;;1227.80;999.90;;;;;;;1.87;100.00;99740.69;5016313;28;20060;-81
2022/02/20 02:05:33;;;;;;;1231.93;999.90;;;;;;;1.84;100.00;99736.63;5031433;28;20065;-80
2022/02/20 02:08:01;;;;;;;1237.43;999.90;;;;;;;1.89;100.00;99749.28;5025582;28;20053;-80
2022/02/20 02:10:48;;;;;;;1238.10;999.90;;;;;;;1.78;100.00;99737.63;5023281;28;20049;-80
2022/02/20 02:13:25;;;;;;;1244.00;999.90;;;;;;;1.91;100.00;99744.50;5023381;28;20049;-81
2022/02/20 02:16:21;;;;;;;1245.45;999.90;;;;;;;1.91;100.00;99744.50;5031141;28;20553;-80
2022/02/20 02:19:23;;;;;;;1248.35;999.90;;;;;;;1.87;100.00;99746.06;5023713;28;20042;-81
2022/02/20 02:22:09;;;;;;;1254.25;999.90;;;;;;;1.89;100.00;99749.28;5023970;28;20061;-81
2022/02/20 02:25:05;;;;;;;1255.50;999.90;;;;;;;1.85;100.00;99746.31;5019085;28;20054;-81
2022/02/20 02:27:56;;;;;;;1255.43;999.90;;;;;;;1.81;100.00;99757.75;5027765;28;20054;-80
2022/02/20 02:30:37;;;;;;;1257.18;999.90;;;;;;;1.77;100.00;99760.13;5020171;28;20045;-80
2022/02/20 02:33:10;;;;;;;1262.10;999.90;;;;;;;1.76;100.00;99763.06;5023111;28;20066;-81
2022/02/20 02:35:43;;;;;;;1265.82;999.90;;;;;;;1.83;100.00;99764.50;5044008;28;20053;-80
2022/02/20 02:38:20;;;;;;;1264.10;999.90;;;;;;;1.84;100.00;99763.44;5026134;28;20133;-81
2022/02/20 02:40:56;;;;;;;1265.57;999.90;;;;;;;1.80;100.00;99767.69;5029937;28;20042;-81
2022/02/20 02:43:29;;;;;;;1268.40;999.90;;;;;;;1.74;100.00;99744.53;5026892;28;20045;-79
2022/02/20 02:46:03;;;;;;;1269.03;999.90;;;;;;;1.78;100.00;99750.19;5032308;28;20046;-80
2022/02/20 02:48:34;;;;;;;1271.82;999.90;;;;;;;1.66;100.00;99753.78;5022401;28;20134;-80
2022/02/20 02:51:07;;;;;;;1272.35;999.90;;;;;;;1.59;100.00;99750.44;5023223;28;20053;-80
2022/02/20 02:53:36;;;;;;;1276.65;999.90;;;;;;;1.65;100.00;99759.38;5021791;28;20406;-80
2022/02/20 02:56:05;;;;;;;1279.97;999.90;;;;;;;1.59;100.00;99747.78;5026201;28;20407;-80
2022/02/20 02:58:38;;;;;;;1285.82;999.90;;;;;;;1.67;100.00;99757.25;5021534;28;20565;-80
2022/02/20 03:01:16;;;;;;;1286.78;999.90;;;;;;;1.69;100.00;99771.25;5031995;28;20049;-80
2022/02/20 03:03:50;;;;;;;1291.75;999.90;;;;;;;1.70;100.00;99773.69;5033822;28;20073;-81
2022/02/20 03:06:25;;;;;;;1295.28;999.90;;;;;;;1.66;100.00;99774.44;5043126;28;20426;-81
2022/02/20 03:09:07;;;;;;;1295.60;999.90;;;;;;;1.66;100.00;99796.69;5022049;28;20053;-80
2022/02/20 03:11:41;;;;;;;1301.07;999.90;;;;;;;1.64;100.00;99789.94;5023962;28;20061;-80
2022/02/20 03:14:20;;;;;;;1304.72;999.90;;;;;;;1.67;100.00;99794.81;5031890;28;20534;-79
2022/02/20 03:16:49;;;;;;;1300.10;999.90;;;;;;;1.60;100.00;99799.53;5030846;28;20072;-81
2022/02/20 03:19:22;;;;;;;1305.90;999.90;;;;;;;1.55;100.00;99802.13;5032353;28;20046;-81
2022/02/20 03:21:56;;;;;;;1303.50;999.90;;;;;;;1.56;100.00;99801.91;5030878;28;20050;-80
2022/02/20 03:24:25;;;;;;;1307.28;999.90;;;;;;;1.63;100.00;99804.41;5027730;28;20050;-81
2022/02/20 03:26:54;;;;;;;1309.45;999.90;;;;;;;1.63;100.00;99799.03;5033273;28;20049;-81
2022/02/20 03:29:33;;;;;;;1313.90;999.90;;;;;;;1.60;100.00;99799.53;5046834;28;20045;-81
2022/02/20 03:32:08;;;;;;;1314.05;999.90;;;;;;;1.48;100.00;99803.09;5023488;28;20049;-80
2022/02/20 03:34:41;;;;;;;1315.05;999.90;;;;;;;1.34;100.00;99809.78;5039620;28;20049;-81
2022/02/20 03:37:10;;;;;;;1314.90;999.90;;;;;;;1.31;100.00;99815.63;5030280;28;20524;-80
2022/02/20 03:39:39;;;;;;;1316.35;999.90;;;;;;;1.24;100.00;99817.66;5032707;28;20410;-80
2022/02/20 03:42:12;;;;;;;1317.45;999.90;;;;;;;1.26;100.00;99828.97;5020446;28;20065;-81
2022/02/20 03:44:56;;;;;;;1324.10;999.90;;;;;;;1.29;100.00;99834.66;5021286;28;20406;-80
2022/02/20 03:47:29;;;;;;;1323.75;999.90;;;;;;;1.34;100.00;99832.06;5028424;28;20060;-81
2022/02/20 03:50:04;;;;;;;1325.65;999.90;;;;;;;1.32;100.00;99836.03;5030925;28;20046;-80
2022/02/20 03:52:40;;;;;;;1326.63;999.90;;;;;;;1.38;100.00;99836.94;5030009;28;20057;-81
2022/02/20 03:55:21;;;;;;;1328.75;999.90;;;;;;;1.40;100.00;99842.91;5032589;28;20076;-80
2022/02/20 03:57:57;;;;;;;1329.72;999.90;;;;;;;1.48;100.00;99847.88;5030645;28;20041;-80
2022/02/20 04:00:35;;;;;;;1332.32;999.90;;;;;;;1.58;100.00;99860.66;5026397;28;20042;-81
2022/02/20 04:03:27;;;;;;;1329.93;999.90;;;;;;;1.56;100.00;99868.09;5036378;28;20057;-80
2022/02/20 04:06:01;;;;;;;1331.07;999.90;;;;;;;1.48;100.00;99867.44;5027951;28;20049;-80
2022/02/20 04:08:29;;;;;;;1332.97;999.90;;;;;;;1.52;100.00;99870.47;5029068;28;20049;-81
2022/02/20 04:11:09;;;;;;;1333.55;999.90;;;;;;;1.58;100.00;99877.53;5027381;28;20056;-80
2022/02/20 04:13:42;;;;;;;1332.18;999.90;;;;;;;1.57;100.00;99889.31;5025933;28;20104;-81
2022/02/20 04:16:21;;;;;;;1330.55;999.90;;;;;;;1.57;100.00;99892.00;5029676;28;20056;-80
2022/02/20 04:18:53;;;;;;;1332.30;999.90;;;;;;;1.60;100.00;99883.50;5029636;28;20053;-81
2022/02/20 04:21:27;;;;;;;1334.45;999.90;;;;;;;1.60;100.00;99891.53;5030203;28;20053;-81
2022/02/20 04:24:08;;;;;;;1337.13;999.90;;;;;;;1.60;100.00;99902.28;5034733;28;20064;-80
2022/02/20 04:26:42;;;;;;;1340.95;999.90;;;;;;;1.67;100.00;99905.63;5027280;28;20052;-81
2022/02/20 04:29:23;;;;;;;1342.05;999.90;;;;;;;1.63;100.00;99914.38;5036511;28;20045;-81
2022/02/20 04:31:59;;;;;;;1342.82;999.90;;;;;;;1.67;100.00;99920.88;5033101;28;20057;-81
2022/02/20 04:34:27;;;;;;;1347.47;999.90;;;;;;;1.61;100.00;99913.81;5034031;28;20049;-80
2022/02/20 04:37:00;;;;;;;1352.97;999.90;;;;;;;1.61;100.00;99914.59;5035634;28;20046;-81
2022/02/20 04:39:31;;;;;;;1353.40;999.90;;;;;;;1.68;100.00;99934.03;5038462;28;20041;-80
2022/02/20 04:42:02;;;;;;;1356.80;999.90;;;;;;;1.57;100.00;99918.81;5032257;28;20046;-80
2022/02/20 04:44:47;;;;;;;1361.03;999.90;;;;;;;1.70;100.00;99940.00;5029430;28;20049;-80
2022/02/20 04:47:28;;;;;;;1365.38;999.90;;;;;;;1.69;100.00;99940.25;5035752;28;20046;-81
2022/02/20 04:50:01;;;;;;;1367.97;999.90;;;;;;;1.75;100.00;99938.47;5030784;28;20053;-81
2022/02/20 04:52:58;;;;;;;1367.55;999.90;;;;;;;1.70;100.00;99940.00;5035097;28;20061;-81
2022/02/20 04:55:30;;;;;;;1365.18;999.90;;;;;;;1.71;100.00;99951.53;5029060;28;20045;-80
2022/02/20 04:58:00;;;;;;;1371.00;999.90;;;;;;;1.72;100.00;99945.13;5031812;28;20045;-81
2022/02/20 05:00:28;;;;;;;1369.43;999.90;;;;;;;1.73;100.00;99944.06;5024470;28;20057;-80
2022/02/20 05:03:02;;;;;;;1374.32;999.90;;;;;;;1.74;100.00;99951.09;5040669;28;20045;-80
2022/02/20 05:05:55;;;;;;;1378.45;999.90;;;;;;;1.76;100.00;99945.47;5037814;28;20046;-80
2022/02/20 05:08:43;;;;;;;1382.32;999.90;;;;;;;1.77;100.00;99949.75;5041259;28;20053;-80
2022/02/20 05:11:21;;;;;;;;;;;;;;;1.81;100.00;99953.59;5032803;28;20050;-81
2022/02/20 05:13:58;;;;;;;1385.82;999.90;;;;;;;1.79;100.00;99950.34;5033050;28;19932;-80
2022/02/20 05:16:32;;;;;;;1394.40;999.90;;;;;;;1.83;100.00;99948.81;5027668;28;20056;-81
2022/02/20 05:19:08;;;;;;;1408.32;999.90;;;;;;;1.83;100.00;99959.56;5037026;28;20060;-81
2022/02/20 05:21:46;;;;;;;1417.03;999.90;;;;;;;1.85;100.00;99946.69;5030674;28;20045;-81
2022/02/20 05:24:20;;;;;;;1437.07;999.90;;;;;;;1.88;100.00;99943.56;5034413;28;20049;-80
2022/02/20 05:27:08;;;;;;;1439.95;999.90;;;;;;;1.81;100.00;99940.19;5036545;28;20116;-81
2022/02/20 05:29:43;;;;;;;1454.90;999.90;;;;;;;1.74;100.00;99936.84;5032439;28;20050;-81
2022/02/20 05:32:23;;;;;;;1461.82;999.90;;;;;;;1.77;100.00;99944.41;5034914;28;20045;-81
2022/02/20 05:35:12;;;;;;;1468.60;999.90;;;;;;;1.78;100.00;99952.22;5037415;28;20552;-80
2022/02/20 05:37:48;;;;;;;1479.30;999.90;;;;;;;1.72;100.00;99953.16;5031598;28;20053;-80
2022/02/20 05:40:21;;;;;;;1484.03;999.90;;;;;;;1.80;100.00;99952.00;5037008;28;20057;-80
2022/02/20 05:42:57;;;;;;;1494.55;999.90;;;;;;;1.84;100.00;99948.56;5034846;28;20041;-80
2022/02/20 05:45:34;;;;;;;1503.65;999.90;;;;;;;1.81;100.00;99948.22;5038436;28;20036;-80
2022/02/20 05:48:16;;;;;;;1502.05;999.90;;;;;;;1.84;100.00;99953.13;5039024;28;20502;-80
2022/02/20 05:51:02;;;;;;;1510.70;999.90;;;;;;;1.82;100.00;99958.75;5029383;28;20041;-80
2022/02/20 05:53:34;;;;;;;1514.97;999.90;;;;;;;1.81;100.00;99943.69;5033969;28;20497;-80
2022/02/20 05:56:08;;;;;;;1523.03;999.90;;;;;;;1.78;100.00;99952.22;5033379;28;20049;-80
2022/02/20 05:58:54;;;;;;;1521.22;999.90;;;;;;;1.80;100.00;99943.94;5045768;28;20056;-80
2022/02/20 06:01:32;;;;;;;1533.63;999.90;;;;;;;1.86;100.00;99949.16;5058030;28;20502;-81
2022/02/20 06:04:07;;;;;;;1535.63;999.90;;;;;;;1.78;100.00;99949.53;5040928;28;20406;-80
2022/02/20 06:06:50;;;;;;;1544.07;999.90;;;;;;;1.83;100.00;99951.50;5034097;28;20053;-80
2022/02/20 06:09:43;;;;;;;1541.03;999.90;;;;;;;1.79;100.00;99944.97;5021193;28;20081;-80
2022/02/20 06:12:31;;;;;;;1542.78;999.90;;;;;;;1.81;100.00;99951.75;5036198;28;20053;-80
2022/02/20 06:15:15;;;;;;;1543.13;999.90;;;;;;;1.84;100.00;99950.47;5037207;28;20064;-81
2022/02/20 06:18:08;;;;;;;1546.88;999.90;;;;;;;1.81;100.00;99945.53;5040192;28;20049;-81
2022/02/20 06:20:58;;;;;;;1539.30;999.90;;;;;;;1.74;100.00;99952.94;5022662;28;20041;-81
2022/02/20 06:23:34;;;;;;;1542.95;999.90;;;;;;;1.80;100.00;99957.34;5026868;28;20038;-80
2022/02/20 06:26:14;;;;;;;1543.53;999.90;;;;;;;1.83;100.00;99954.19;5039108;28;20067;-81
2022/02/20 06:28:43;;;;;;;1536.57;999.90;;;;;;;1.78;100.00;99964.81;5033588;28;20048;-80
2022/02/20 06:31:21;;;;;;;1541.43;999.90;;;;;;;1.85;100.00;99960.09;5021838;28;20151;-80
2022/02/20 06:33:57;;;;;;;1538.82;999.90;;;;;;;1.82;100.00;99950.69;5034960;28;20410;-80
2022/02/20 06:36:27;;;;;;;1539.82;999.90;;;;;;;1.76;100.00;99950.84;5036633;28;20053;-81
2022/02/20 06:39:00;;;;;;;1540.13;999.90;;;;;;;1.79;100.00;99950.34;5030965;28;20406;-81
2022/02/20 06:41:33;;;;;;;1539.47;999.90;;;;;;;1.80;100.00;99944.75;5035417;28;20049;-80
2022/02/20 06:44:06;;;;;;;1534.50;999.90;;;;;;;1.83;100.00;99943.44;5031107;28;20557;-80
2022/02/20 06:46:58;;;;;;;1532.75;999.90;;;;;;;1.81;100.00;99948.22;5021916;28;20430;-81
2022/02/20 06:49:49;;;;;;;1537.53;999.90;;;;;;;1.85;100.00;99947.53;5039021;28;20049;-81
2022/02/20 06:52:43;;;;;;;1526.97;999.90;;;;;;;1.85;100.00;99962.78;5026226;28;20355;-81
2022/02/20 06:55:39;;;;;;;1540.53;999.90;;;;;;;1.89;100.00;99963.16;5029802;28;20055;-80
2022/02/20 06:58:14;;;;;;;1534.05;999.90;;;;;;;1.89;100.00;99960.47;5039237;28;20505;-81
2022/02/20 07:00:47;;;;;;;1531.25;999.90;;;;;;;1.88;100.00;99962.34;5033139;28;20046;-80
2022/02/20 07:03:15;;;;;;;1529.03;999.90;;;;;;;1.94;100.00;99956.00;5028796;28;20049;-80
2022/02/20 07:05:49;;;;;;;1531.30;999.90;;;;;;;1.96;100.00;99955.75;5016817;28;20042;-81
2022/02/20 07:08:17;;;;;;;1525.47;999.90;;;;;;;1.90;100.00;99965.59;5020163;28;20049;-80
2022/02/20 07:10:51;;;;;;;1532.90;999.90;;;;;;;1.95;100.00;99965.69;5016955;28;20057;-80
2022/02/20 07:13:19;;;;;;;1532.80;999.90;;;;;;;2.02;100.00;99965.53;5025468;28;20041;-80
2022/02/20 07:15:52;;;;;;;1535.38;999.90;;;;;;;1.95;100.00;99959.50;5035530;28;20057;-80
2022/02/20 07:18:21;;;;;;;1535.50;999.90;;;;;;;2.01;100.00;99962.03;5038399;28;20041;-80
2022/02/20 07:20:56;;;;;;;1540.60;999.90;;;;;;;2.08;100.00;99958.41;5015920;28;20053;-81
2022/02/20 07:23:29;;;;;;;1544.50;999.90;;;;;;;2.03;100.00;99953.72;5031795;28;20552;-80
2022/02/20 07:26:02;;;;;;;1551.00;999.90;;;;;;;2.10;100.00;99948.22;5030440;28;20058;-80
2022/02/20 07:28:35;;;;;;;1564.53;999.90;;;;;;;2.14;100.00;99944.00;5036649;28;20053;-80
2022/02/20 07:31:09;;;;;;;1562.68;999.90;;;;;;;2.10;100.00;99945.53;5024751;28;20054;-80
2022/02/20 07:33:42;;;;;;;1574.05;999.90;;;;;;;2.11;100.00;99936.44;5036446;28;20038;-79
2022/02/20 07:36:12;;;;;;;1581.05;999.90;;;;;;;2.14;100.00;99944.00;5034785;28;20401;-81
2022/02/20 07:38:46;;;;;;;1585.70;999.90;;;;;;;2.04;100.00;99937.41;5037637;28;20041;-81
2022/02/20 07:41:19;;;;;;;1590.13;999.90;;;;;;;2.09;100.00;99949.28;5033631;28;20050;-81
2022/02/20 07:43:52;;;;;;;1586.25;999.90;;;;;;;2.15;100.00;99948.31;5036527;28;20057;-80
2022/02/20 07:46:25;;;;;;;1583.43;999.90;;;;;;;2.08;100.00;99936.91;5032814;28;20058;-81
2022/02/20 07:48:58;;;;;;;1586.43;999.90;;;;;;;2.13;100.00;99942.38;5038377;28;20041;-81
2022/02/20 07:51:28;;;;;;;1583.47;999.90;;;;;;;2.12;100.00;99943.44;5032912;28;20057;-81
2022/02/20 07:54:01;;;;;;;1584.22;999.90;;;;;;;2.13;100.00;99943.19;5024594;28;20057;-81
2022/02/20 07:56:34;;;;;;;1589.78;999.90;;;;;;;2.14;100.00;99941.31;5018728;28;20406;-80
2022/02/20 07:59:07;;;;;;;1586.20;999.90;;;;;;;2.08;100.00;99934.25;5017790;28;20056;-81
2022/02/20 08:01:35;;;;;;;1589.32;999.90;;;;;;;2.15;100.00;99927.63;5030831;28;20045;-80
2022/02/20 08:04:09;;;;;;;1588.70;999.90;;;;;;;2.16;100.00;99944.59;5034739;28;20054;-80
2022/02/20 08:06:43;;;;;;;1593.03;999.90;;;;;;;2.20;100.00;99943.03;5018597;28;20050;-82
2022/02/20 08:09:16;;;;;;;1596.28;999.90;;;;;;;2.16;100.00;99942.69;5019760;28;20056;-81
2022/02/20 08:11:50;;;;;;;1612.13;999.90;;;;;;;2.14;100.00;99944.81;5032917;28;20442;-80
2022/02/20 08:14:23;;;;;;;1619.57;999.90;;;;;;;2.16;100.00;99940.00;5045157;28;20413;-82
2022/02/20 08:16:57;;;;;;;1627.40;999.90;;;;;;;2.14;100.00;99944.00;5025608;28;20049;-81
2022/02/20 08:19:31;;;;;;;1641.10;999.90;;;;;;;2.17;100.00;99941.66;5024392;28;20553;-81
2022/02/20 08:22:07;;;;;;;1644.55;999.90;;;;;;;2.18;100.00;99940.59;5032466;28;20046;-80
2022/02/20 08:24:40;;;;;;;1650.43;999.90;;;;;;;2.14;100.00;99941.31;5019855;28;20038;-81
2022/02/20 08:27:15;;;;;;;1670.80;999.90;;;;;;;2.14;100.00;99931.41;5022853;28;20418;-81
2022/02/20 08:29:48;;;;;;;1676.25;999.90;;;;;;;2.22;100.00;99932.84;5022506;28;20045;-80
2022/02/20 08:32:21;;;;;;;1687.25;999.90;;;;;;;2.26;100.00;99933.19;5024237;28;20041;-82
2022/02/20 08:34:54;;;;;;;1694.05;999.90;;;;;;;2.31;100.00;99925.25;5032447;28;20049;-81
2022/02/20 08:37:29;;;;;;;1716.85;999.90;;;;;;;2.35;100.00;99918.31;5032574;28;20058;-81
2022/02/20 08:40:03;;;;;;;1725.35;999.90;;;;;;;2.33;100.00;99917.75;5028824;28;20057;-81
2022/02/20 08:42:36;;;;;;;1741.00;999.90;;;;;;;2.28;100.00;99918.47;5035303;28;20045;-81
2022/02/20 08:45:08;;;;;;;1755.93;999.90;;;;;;;2.28;100.00;99909.59;5030505;28;20052;-82
2022/02/20 08:47:37;;;;;;;1761.60;999.90;;;;;;;2.27;100.00;99914.16;5025820;28;20052;-81
2022/02/20 08:50:12;;;;;;;1774.43;999.90;;;;;;;2.23;100.00;99920.25;5023039;28;20422;-80
2022/02/20 08:52:49;;;;;;;1775.60;999.90;;;;;;;2.21;100.00;99902.53;5021795;28;20493;-84
2022/02/20 08:55:23;;;;;;;1779.50;999.90;;;;;;;2.23;100.00;99901.47;5016397;28;20053;-81
2022/02/20 08:57:56;;;;;;;1776.10;999.90;;;;;;;2.19;100.00;99906.50;5022143;28;20112;-81
2022/02/20 09:00:30;;;;;;;1779.03;999.90;;;;;;;2.19;100.00;99885.03;5022593;28;20049;-80
2022/02/20 09:03:03;;;;;;;1779.47;999.90;;;;;;;2.25;100.00;99892.13;5021623;28;20501;-80
2022/02/20 09:05:36;;;;;;;1775.78;999.90;;;;;;;2.28;100.00;99877.38;5025461;28;20045;-81
2022/02/20 09:08:10;;;;;;;1789.30;999.90;;;;;;;2.31;100.00;99883.09;5025453;28;20048;-80
2022/02/20 09:10:44;;;;;;;1796.38;999.90;;;;;;;2.21;100.00;99875.69;5029379;28;20057;-81
2022/02/20 09:13:17;;;;;;;1796.95;999.90;;;;;;;2.23;100.00;99870.06;5020132;28;20041;-81
2022/02/20 09:15:51;;;;;;;1819.55;999.90;;;;;;;2.24;100.00;99863.66;5039282;28;20065;-81
2022/02/20 09:18:19;;;;;;;1814.47;999.90;;;;;;;2.25;100.00;99859.06;5012705;28;20542;-81
2022/02/20 09:20:52;;;;;;;1826.35;999.90;;;;;;;2.28;100.00;99855.91;5014814;28;20053;-81
2022/02/20 09:23:26;;;;;;;1825.93;999.90;;;;;;;2.27;100.00;99849.72;5012245;28;20065;-82
2022/02/20 09:25:59;;;;;;;1826.35;999.90;;;;;;;2.29;100.00;99834.19;5021379;28;20053;-81
2022/02/20 09:28:32;;;;;;;1829.80;999.90;;;;;;;2.29;100.00;99828.81;5024644;28;20125;-81
2022/02/20 09:31:05;;;;;;;1808.03;999.90;;;;;;;2.17;100.00;99823.53;5022699;28;20060;-80
2022/02/20 09:33:39;;;;;;;1820.60;999.90;;;;;;;2.15;100.00;99812.22;5019749;28;20045;-81
2022/02/20 09:36:12;;;;;;;1810.78;999.90;;;;;;;2.11;100.00;99800.34;5024320;28;20061;-81
2022/02/20 09:38:47;;;;;;;1800.20;999.90;;;;;;;2.08;100.00;99786.63;5014465;28;20061;-81
2022/02/20 09:41:25;;;;;;;1785.47;999.90;;;;;;;2.05;100.00;99785.22;5027737;28;20057;-81
2022/02/20 09:44:00;;;;;;;1751.82;999.90;;;;;;;1.91;100.00;99768.66;5024648;28;20037;-81
2022/02/20 09:46:33;;;;;;;1740.68;999.90;;;;;;;2.00;100.00;99764.50;5022005;28;20045;-80
2022/02/20 09:49:07;;;;;;;1717.93;999.90;;;;;;;1.91;100.00;99749.06;5028426;28;20494;-81
2022/02/20 09:51:37;;;;;;;1698.85;999.90;;;;;;;1.89;100.00;99745.81;5021788;28;20056;-81
2022/02/20 09:54:11;;;;;;;1670.53;999.90;;;;;;;1.79;100.00;99719.63;5021695;28;20371;-81
2022/02/20 09:56:44;;;;;;;1650.38;999.90;;;;;;;1.83;100.00;99718.88;5016420;28;20499;-81
2022/02/20 09:59:18;;;;;;;1622.07;999.90;;;;;;;1.94;100.00;99711.00;5029534;28;20049;-81
2022/02/20 10:02:08;;;;;;;1601.07;999.90;;;;;;;1.88;100.00;99710.13;5016815;28;20049;-81
2022/02/20 10:04:42;;;;;;;1571.03;999.90;;;;;;;1.94;100.00;99697.59;5020518;28;20042;-81
2022/02/20 10:07:27;;;;;;;1537.03;999.90;;;;;;;1.94;100.00;99694.91;5021344;28;20506;-81
2022/02/20 10:13:25;;;;;;;1480.30;999.90;;;;;;;1.91;100.00;99676.63;5026127;28;20061;-81
2022/02/20 10:15:54;;;;;;;1465.95;999.90;;;;;;;2.00;100.00;99661.72;5028702;28;20042;-81
2022/02/20 10:19:01;;;;;;;1429.60;999.90;;;;;;;2.02;100.00;99660.41;5022577;28;20045;-80
2022/02/20 10:21:49;;;;;;;1396.10;999.90;;;;;;;1.95;100.00;99650.94;5016604;28;20422;-81
2022/02/20 10:24:20;;;;;;;1382.80;999.90;;;;;;;1.96;100.00;99641.78;5028753;28;20049;-81
2022/02/20 10:26:53;;;;;;;1382.40;999.90;;;;;;;2.01;100.00;99639.97;5019597;28;20037;-81
2022/02/20 10:30:10;;;;;;;1384.07;999.90;;;;;;;1.96;100.00;99625.69;5017085;28;20415;-81
2022/02/20 10:32:44;;;;;;;1373.03;999.90;;;;;;;2.00;100.00;99621.44;5030807;28;20049;-81
2022/02/20 10:35:18;;;;;;;1370.30;999.90;;;;;;;2.07;100.00;99616.72;5026309;28;20703;-81
2022/02/20 10:37:54;;;;;;;1366.93;999.90;;;;;;;2.01;100.00;99606.97;5014660;28;20053;-81
2022/02/20 10:40:34;;;;;;;1365.28;999.90;;;;;;;1.94;100.00;99606.38;5027326;28;20056;-80
2022/02/20 10:43:06;;;;;;;1360.57;999.90;;;;;;;1.97;100.00;99589.75;5020022;28;20037;-80
2022/02/20 10:45:40;;;;;;;1356.35;999.90;;;;;;;2.06;100.00;99590.94;5024197;28;20045;-81
2022/02/20 10:48:18;;;;;;;1351.70;999.90;;;;;;;2.06;100.00;99577.53;5024168;28;20041;-82
2022/02/20 10:50:57;;;;;;;1350.28;999.90;;;;;;;2.14;100.00;99565.53;5031054;28;20402;-81
2022/02/20 10:53:32;;;;;;;1346.03;999.90;;;;;;;2.13;100.00;99554.00;5024310;28;20306;-81
2022/02/20 10:56:05;;;;;;;1339.00;999.90;;;;;;;2.08;100.00;99551.25;5023519;28;20084;-81
2022/02/20 10:58:44;;;;;;;1341.60;999.90;;;;;;;2.16;100.00;99542.75;5018502;28;20397;-81
2022/02/20 11:01:22;;;;;;;1335.07;999.90;;;;;;;2.14;100.00;99538.69;5016754;28;20398;-81
2022/02/20 11:03:51;;;;;;;1335.72;999.90;;;;;;;2.23;100.00;99523.75;5031626;28;20038;-81
2022/02/20 11:06:24;;;;;;;1334.22;999.90;;;;;;;2.10;100.00;99519.59;5029157;28;20413;-80
2022/02/20 11:08:57;;;;;;;1339.03;999.90;;;;;;;2.23;100.00;99520.28;5023419;28;20042;-80
2022/02/20 11:11:38;;;;;;;1339.78;999.90;;;;;;;2.07;100.00;99497.81;5028801;28;20045;-80
2022/02/20 11:14:13;;;;;;;1342.13;999.90;;;;;;;2.08;100.00;99494.09;5020780;28;20057;-80
2022/02/20 11:16:49;;;;;;;1336.85;999.90;;;;;;;2.03;100.00;99481.41;5016367;28;20046;-81
2022/02/20 11:19:23;;;;;;;1338.30;999.90;;;;;;;1.98;100.00;99495.59;5021967;28;20046;-80
2022/02/20 11:22:00;;;;;;;1334.63;999.90;;;;;;;1.97;100.00;99475.19;5024366;28;20422;-81
2022/02/20 11:24:35;;;;;;;1337.60;999.90;;;;;;;2.07;100.00;99423.47;5020810;28;20441;-80
2022/02/20 11:27:14;;;;;;;1330.25;999.90;;;;;;;1.93;100.00;99459.84;5016079;28;20064;-80
2022/02/20 11:29:48;;;;;;;1331.93;999.90;;;;;;;1.89;100.00;99453.38;5021689;28;20060;-81
2022/02/20 11:32:22;;;;;;;1329.65;999.90;;;;;;;1.91;100.00;99408.31;5023334;28;20056;-79
2022/02/20 11:34:56;;;;;;;1326.28;999.90;;;;;;;1.95;100.00;99449.69;5022864;28;20041;-80